createdAt,value
2018-12-18T00:01:07.178Z,36.90
2018-12-18T00:05:52.020Z,36.63
2018-12-18T00:10:42.068Z,88.83
2018-12-18T00:15:26.993Z,46.83
2018-12-18T00:20:12.265Z,24.63
2018-12-18T00:24:57.304Z,21.00
2018-12-18T00:29:42.157Z,27.57
2018-12-18T00:34:27.043Z,52.20
2018-12-18T00:39:14.094Z,37.93
2018-12-18T00:43:58.893Z,19.37
2018-12-18T00:48:43.674Z,40.00
2018-12-18T00:53:28.423Z,25.27
2018-12-18T00:58:13.277Z,18.80
2018-12-18T01:02:59.947Z,19.60
2018-12-18T01:07:44.793Z,19.17
2018-12-18T01:12:29.579Z,20.30
2018-12-18T01:17:14.406Z,17.57
2018-12-18T01:21:59.305Z,25.33
2018-12-18T01:26:44.114Z,41.60
2018-12-18T01:31:28.954Z,68.37
2018-12-18T01:36:13.722Z,42.00
2018-12-18T01:40:58.482Z,25.23
2018-12-18T01:45:43.317Z,19.73
2018-12-18T01:50:28.092Z,13.60
2018-12-18T01:55:13.018Z,14.80
2018-12-18T01:59:57.825Z,16.23
2018-12-18T02:04:42.602Z,14.43
2018-12-18T02:09:27.342Z,31.50
2018-12-18T02:14:12.204Z,16.13
2018-12-18T02:18:56.958Z,15.10
2018-12-18T02:23:41.728Z,20.83
2018-12-18T02:28:26.455Z,22.57
2018-12-18T02:33:11.286Z,19.17
2018-12-18T02:37:56.048Z,21.33
2018-12-18T02:42:40.837Z,22.23
2018-12-18T02:47:25.584Z,25.27
2018-12-18T02:52:10.449Z,21.13
2018-12-18T02:56:55.269Z,32.30
2018-12-18T03:01:40.034Z,42.80
2018-12-18T03:06:24.770Z,64.50
2018-12-18T03:11:12.111Z,20.67
2018-12-18T03:15:56.842Z,19.10
2018-12-18T03:20:41.597Z,37.50
2018-12-18T03:25:26.352Z,20.73
2018-12-18T03:30:11.091Z,29.30
2018-12-18T03:34:55.935Z,25.20
2018-12-18T03:39:40.696Z,28.63
2018-12-18T03:44:25.440Z,7.87
2018-12-18T03:49:10.215Z,5.23
2018-12-18T03:53:55.071Z,4.43
2018-12-18T03:58:39.769Z,6.13
2018-12-18T04:03:24.668Z,11.90
2018-12-18T04:08:09.339Z,13.87
2018-12-18T04:12:54.124Z,17.37
2018-12-18T04:17:38.892Z,9.63
2018-12-18T04:22:23.636Z,12.17
2018-12-18T04:27:08.449Z,12.53
2018-12-18T04:31:53.268Z,9.13
2018-12-18T04:36:38.046Z,11.90
2018-12-18T04:41:23.182Z,15.57
2018-12-18T04:46:07.949Z,28.37
2018-12-18T04:50:52.783Z,14.50
2018-12-18T04:55:37.550Z,15.90
2018-12-18T05:00:22.285Z,15.00
2018-12-18T05:05:07.132Z,28.63
2018-12-18T05:09:51.913Z,23.20
2018-12-18T05:14:36.657Z,37.33
2018-12-18T05:19:21.385Z,28.23
2018-12-18T05:24:06.224Z,41.73
2018-12-18T05:28:51.121Z,47.40
2018-12-18T05:33:35.814Z,66.47
2018-12-18T05:38:20.583Z,16.90
2018-12-18T05:43:05.425Z,32.90
2018-12-18T05:47:50.185Z,19.30
2018-12-18T05:52:34.936Z,29.53
2018-12-18T05:57:19.727Z,19.80
2018-12-18T06:02:04.451Z,16.37
2018-12-18T06:06:49.169Z,15.73
2018-12-18T06:11:33.912Z,16.37
2018-12-18T06:16:18.693Z,21.03
2018-12-18T06:21:03.700Z,17.50
2018-12-18T06:25:48.498Z,26.70
2018-12-18T06:30:33.223Z,11.30
2018-12-18T06:35:18.086Z,14.23
2018-12-18T06:40:02.915Z,10.00
2018-12-18T06:44:48.288Z,6.97
2018-12-18T06:49:32.984Z,6.00
2018-12-18T06:54:17.825Z,16.60
2018-12-18T06:59:02.651Z,12.50
2018-12-18T07:03:47.596Z,14.53
2018-12-18T07:08:32.371Z,40.13
2018-12-18T07:13:17.206Z,34.90
2018-12-18T07:18:01.918Z,29.90
2018-12-18T07:22:46.773Z,24.67
2018-12-18T07:27:31.540Z,30.60
2018-12-18T07:32:16.384Z,22.60
2018-12-18T07:37:01.094Z,8.40
2018-12-18T07:41:45.784Z,11.70
2018-12-18T07:46:30.549Z,9.77
2018-12-18T07:51:15.289Z,9.43
2018-12-18T07:56:00.362Z,24.43
2018-12-18T08:00:45.536Z,17.37
2018-12-18T08:05:30.231Z,18.63
2018-12-18T08:10:15.105Z,1.60
2018-12-18T08:14:59.837Z,3.20
2018-12-18T08:19:44.625Z,2.10
2018-12-18T08:24:29.558Z,2.23
2018-12-18T08:29:14.325Z,2.33
2018-12-18T08:33:59.112Z,0.60
2018-12-18T08:38:43.890Z,1.27
2018-12-18T08:43:28.684Z,0.97
2018-12-18T08:48:13.472Z,2.57
2018-12-18T08:52:58.239Z,0.93
2018-12-18T08:57:42.963Z,1.13
2018-12-18T09:02:27.693Z,1.10
2018-12-18T09:07:12.495Z,1.37
2018-12-18T09:11:57.273Z,2.10
2018-12-18T09:16:47.239Z,5.20
2018-12-18T09:21:31.959Z,2.30
2018-12-18T09:26:16.843Z,1.53
2018-12-18T09:31:01.600Z,1.13
2018-12-18T09:35:49.637Z,0.97
2018-12-18T09:40:38.202Z,2.77
2018-12-18T09:45:23.101Z,3.27
2018-12-18T09:50:08.884Z,2.50
2018-12-18T09:54:53.683Z,3.73
2018-12-18T09:59:38.459Z,7.13
2018-12-18T10:04:23.260Z,10.37
2018-12-18T10:09:09.768Z,5.80
2018-12-18T10:13:54.853Z,10.60
2018-12-18T10:18:39.702Z,13.70
2018-12-18T10:23:24.516Z,10.47
2018-12-18T10:28:09.406Z,19.50
2018-12-18T10:32:54.176Z,19.27
2018-12-18T10:37:39.008Z,15.10
2018-12-18T10:42:23.812Z,11.33
2018-12-18T10:47:08.634Z,6.37
2018-12-18T10:51:53.496Z,5.97
2018-12-18T10:56:38.258Z,6.23
2018-12-18T11:01:28.335Z,6.87
2018-12-18T11:06:13.189Z,5.80
2018-12-18T11:10:57.994Z,6.40
2018-12-18T11:15:42.815Z,10.33
2018-12-18T11:20:27.827Z,7.30
2018-12-18T11:25:12.834Z,5.87
2018-12-18T11:29:57.684Z,7.03
2018-12-18T11:34:42.493Z,4.87
2018-12-18T11:39:27.801Z,5.40
2018-12-18T11:44:12.625Z,5.57
2018-12-18T11:48:57.574Z,8.20
2018-12-18T11:53:42.381Z,5.23
2018-12-18T11:58:27.336Z,4.70
2018-12-18T12:03:12.256Z,7.40
2018-12-18T12:07:57.076Z,11.60
2018-12-18T12:12:44.937Z,5.10
2018-12-18T12:17:29.882Z,5.83
2018-12-18T12:22:14.718Z,4.33
2018-12-18T12:27:04.609Z,3.17
2018-12-18T12:31:49.381Z,5.73
2018-12-18T12:36:34.218Z,5.30
2018-12-18T12:41:19.012Z,6.53
2018-12-18T12:46:03.978Z,5.87
2018-12-18T12:50:48.712Z,2.63
2018-12-18T12:55:33.495Z,1.60
2018-12-18T13:00:18.539Z,38.73
2018-12-18T13:05:03.736Z,19.07
2018-12-18T13:09:48.748Z,6.63
2018-12-18T13:14:33.500Z,5.20
2018-12-18T13:19:18.304Z,4.47
2018-12-18T13:24:03.207Z,1.73
2018-12-18T13:28:48.005Z,9.77
2018-12-18T13:33:32.803Z,5.57
2018-12-18T13:38:17.735Z,10.93
2018-12-18T13:43:02.606Z,7.70
2018-12-18T13:47:47.597Z,3.80
2018-12-18T13:52:32.667Z,4.13
2018-12-18T13:57:17.456Z,5.27
2018-12-18T14:02:02.364Z,6.13
2018-12-18T14:06:49.823Z,6.43
2018-12-18T14:11:34.043Z,4.93
2018-12-18T14:16:18.873Z,4.90
2018-12-18T14:21:03.686Z,8.87
2018-12-18T14:25:48.637Z,8.30
2018-12-18T14:30:33.453Z,9.53
2018-12-18T14:35:18.458Z,4.60
2018-12-18T14:40:03.691Z,7.73
2018-12-18T14:44:48.492Z,12.63
2018-12-18T14:49:33.333Z,6.30
2018-12-18T14:54:18.520Z,7.10
2018-12-18T14:59:03.372Z,5.60
2018-12-18T15:03:48.261Z,9.83
2018-12-18T15:08:33.210Z,12.93
2018-12-18T15:13:18.008Z,16.83
2018-12-18T15:18:02.882Z,17.00
2018-12-18T15:22:47.724Z,25.33
2018-12-18T15:27:32.556Z,18.73
2018-12-18T15:32:17.458Z,21.27
2018-12-18T15:37:02.401Z,24.10
2018-12-18T15:41:47.293Z,22.87
2018-12-18T15:46:32.356Z,23.17
2018-12-18T15:51:17.328Z,25.50
2018-12-18T15:56:02.229Z,18.80
2018-12-18T16:00:47.034Z,29.93
2018-12-18T16:05:31.954Z,24.87
2018-12-18T16:10:16.779Z,27.97
2018-12-18T16:15:01.754Z,36.60
2018-12-18T16:19:46.768Z,32.17
2018-12-18T16:24:31.681Z,41.53
2018-12-18T16:29:16.483Z,28.70
2018-12-18T16:34:01.330Z,36.50
2018-12-18T16:38:46.107Z,37.80
2018-12-18T16:43:31.399Z,35.83
2018-12-18T16:48:16.639Z,44.57
2018-12-18T16:53:01.705Z,41.57
2018-12-18T16:57:46.519Z,38.93
2018-12-18T17:02:31.804Z,35.23
2018-12-18T17:07:16.753Z,40.63
2018-12-18T17:12:01.739Z,41.40
2018-12-18T17:16:46.611Z,35.33
2018-12-18T17:21:31.750Z,28.70
2018-12-18T17:26:16.656Z,31.13
2018-12-18T17:31:01.660Z,28.03
2018-12-18T17:35:46.802Z,31.93
2018-12-18T17:40:31.970Z,32.07
2018-12-18T17:45:16.922Z,26.93
2018-12-18T17:50:01.906Z,30.90
2018-12-18T17:54:46.809Z,35.20
2018-12-18T17:59:31.839Z,40.70
2018-12-18T18:04:16.811Z,50.07
2018-12-18T18:09:02.498Z,50.07
2018-12-18T18:13:47.520Z,58.53
2018-12-18T18:18:32.567Z,42.57
2018-12-18T18:23:17.549Z,50.37
2018-12-18T18:28:02.399Z,52.87
2018-12-18T18:32:47.306Z,47.87
2018-12-18T18:37:32.128Z,43.83
2018-12-18T18:42:17.023Z,50.23
2018-12-18T18:47:01.842Z,42.13
2018-12-18T18:51:46.748Z,42.77
2018-12-18T18:56:31.594Z,48.50
2018-12-18T19:01:16.796Z,41.33
2018-12-18T19:06:01.871Z,49.63
2018-12-18T19:10:46.837Z,49.40
2018-12-18T19:15:31.795Z,62.93
2018-12-18T19:20:16.872Z,54.67
2018-12-18T19:25:01.969Z,55.17
2018-12-18T19:29:47.151Z,73.57
2018-12-18T19:34:32.088Z,74.73
2018-12-18T19:39:17.560Z,56.97
2018-12-18T19:44:02.946Z,52.53
2018-12-18T19:48:48.050Z,54.67
2018-12-18T19:53:33.186Z,55.47
2018-12-18T19:58:18.071Z,65.07
2018-12-18T20:03:03.184Z,71.70
2018-12-18T20:07:48.187Z,62.87
2018-12-18T20:12:33.523Z,66.07
2018-12-18T20:17:19.087Z,88.33
2018-12-18T20:22:04.218Z,73.53
2018-12-18T20:26:49.383Z,69.47
2018-12-18T20:31:34.406Z,70.17
2018-12-18T20:36:19.378Z,75.97
2018-12-18T20:41:04.526Z,71.90
2018-12-18T20:45:49.725Z,75.93
2018-12-18T20:50:34.695Z,67.07
2018-12-18T20:55:19.763Z,71.07
2018-12-18T21:00:05.826Z,101.83
2018-12-18T21:04:50.802Z,113.60
2018-12-18T21:09:35.740Z,132.07
2018-12-18T21:14:20.990Z,67.60
2018-12-18T21:19:06.049Z,57.53
2018-12-18T21:23:50.955Z,78.33
2018-12-18T21:28:36.798Z,75.00
2018-12-18T21:33:21.947Z,170.13
2018-12-18T21:38:06.910Z,74.80
2018-12-18T21:42:51.852Z,71.53
2018-12-18T21:47:37.057Z,66.97
2018-12-18T21:52:23.010Z,80.40
2018-12-18T21:57:07.960Z,74.83
2018-12-18T22:01:52.934Z,88.57
2018-12-18T22:06:37.944Z,61.83
2018-12-18T22:11:22.942Z,73.77
2018-12-18T22:16:07.780Z,65.50
2018-12-18T22:20:52.788Z,59.80
2018-12-18T22:25:37.776Z,46.13
2018-12-18T22:30:22.962Z,48.73
2018-12-18T22:35:08.088Z,49.43
2018-12-18T22:39:52.976Z,48.50
2018-12-18T22:44:38.171Z,53.87
2018-12-18T22:49:23.434Z,44.07
2018-12-18T22:54:08.674Z,41.00
2018-12-18T22:58:53.722Z,44.97
2018-12-18T23:03:39.341Z,55.43
2018-12-18T23:08:24.372Z,66.13
2018-12-18T23:13:11.253Z,74.07
2018-12-18T23:17:56.424Z,59.57
2018-12-18T23:22:41.842Z,51.80
2018-12-18T23:27:30.846Z,52.87
2018-12-18T23:32:15.797Z,49.20
2018-12-18T23:37:00.705Z,46.97
2018-12-18T23:41:45.931Z,44.90
2018-12-18T23:46:30.822Z,49.87
2018-12-18T23:51:15.677Z,42.13
2018-12-18T23:56:00.504Z,32.40
